Lazear, Colorado
Current Conditions -  °F | °C
As of 9:15 PM on Sunday 21 Dec 2014 (Local Time) from KAJZ Reporting Station
Overcast Overcast  
Wind Chill: 35°   Ceiling: 800
Heat Index: 35°   Visibility: 10mi
Dew Point: 32°   Wind: 3mph
Humidity: 91%   Direction: 40°NE
Pressure: 29.9"   Gusts: NA
Location:  38.78°N, 107.78°W
Report Text: KAJZ 220415Z AUTO 04003KT 10SM OVC008 02/00 A2990 RMK AO2 T00150002
Loading
Personal Weather Stations






























Interactive Weather Map New forecast layout! Learn more

10-Day Weather Forecast

Advertisements
Track Severe Weather on mobile